Time;durP1;ratioP1;P1;durP2;ratioP2;P2;SDS_P1;SDS_P2;PMS_P1;PMS_P2;Temp;Humidity;BMP_temperature;BMP_pressure;BME280_temperature;BME280_humidity;BME280_pressure;Samples;Min_cycle;Max_cycle;Signal;HPM_P1;HPM_P2
2023/04/05 00:01:41;;;;;;;3.40;3.03;;;;;-1.70;97006.00;;;;5085833;28;20848;-68
2023/04/05 00:04:33;;;;;;;3.80;2.77;;;;;-1.60;97000.00;;;;5079041;28;20433;-67
2023/04/05 00:07:25;;;;;;;8.53;4.00;;;;;-1.60;96991.00;;;;5084890;28;20469;-68
2023/04/05 00:10:14;;;;;;;4.93;3.10;;;;;-1.30;97005.00;;;;5074275;28;20476;-68
2023/04/05 00:13:03;;;;;;;5.37;3.17;;;;;-1.60;97004.00;;;;5084244;28;20433;-68
2023/04/05 00:15:52;;;;;;;4.67;3.23;;;;;-1.70;96988.00;;;;5087898;28;20441;-68
2023/04/05 00:18:48;;;;;;;3.97;2.77;;;;;-1.70;96996.00;;;;5084595;27;20425;-68
2023/04/05 00:21:39;;;;;;;4.73;3.20;;;;;-2.20;96982.00;;;;5086910;28;20999;-68
2023/04/05 00:24:29;;;;;;;8.63;3.73;;;;;-2.00;96987.00;;;;5087057;28;20438;-68
2023/04/05 00:27:19;;;;;;;9.20;4.47;;;;;-1.60;96991.00;;;;5079100;28;20539;-67
2023/04/05 00:30:08;;;;;;;5.43;3.60;;;;;-1.60;96980.00;;;;5078494;28;20490;-68
2023/04/05 00:32:57;;;;;;;9.27;5.07;;;;;-1.60;96982.00;;;;5078751;28;20459;-67
2023/04/05 00:35:46;;;;;;;5.13;3.23;;;;;-2.00;96975.00;;;;5086317;28;20421;-67
2023/04/05 00:38:37;;;;;;;6.90;4.20;;;;;-1.70;96976.00;;;;5083807;28;20422;-68
2023/04/05 00:41:26;;;;;;;6.70;4.27;;;;;-1.60;96987.00;;;;5082671;28;20454;-68
2023/04/05 00:44:15;;;;;;;4.97;4.40;;;;;-1.50;96980.00;;;;5082741;28;20492;-67
2023/04/05 00:47:04;;;;;;;11.50;6.83;;;;;-1.50;96990.00;;;;5074903;28;20461;-67
2023/04/05 00:49:53;;;;;;;9.80;4.43;;;;;-1.70;96989.00;;;;5081451;28;20438;-68
2023/04/05 00:52:42;;;;;;;8.03;5.20;;;;;-1.70;96984.00;;;;5084956;28;20462;-68
2023/04/05 00:55:33;;;;;;;6.20;4.33;;;;;-1.70;96987.00;;;;5084482;28;20430;-68
2023/04/05 00:58:23;;;;;;;8.10;6.03;;;;;-1.50;96986.00;;;;5072393;28;20543;-68
2023/04/05 01:01:15;;;;;;;8.23;5.53;;;;;-1.60;96988.00;;;;5077928;28;20939;-67
2023/04/05 01:04:05;;;;;;;6.83;5.13;;;;;-2.00;96980.00;;;;5085365;28;20932;-68
2023/04/05 01:07:03;;;;;;;7.23;5.10;;;;;-2.00;96990.00;;;;5084371;28;20472;-68
2023/04/05 01:09:56;;;;;;;20.40;8.10;;;;;-1.90;96977.00;;;;5082664;28;20457;-67
2023/04/05 01:12:47;;;;;;;10.13;6.17;;;;;-2.20;96983.00;;;;5082842;28;20833;-68
2023/04/05 01:15:35;;;;;;;11.67;5.83;;;;;-2.20;96974.00;;;;5080127;28;20429;-68
2023/04/05 01:18:25;;;;;;;9.03;7.13;;;;;-2.30;96964.00;;;;5073013;28;20431;-68
2023/04/05 01:21:39;;;;;;;14.27;7.57;;;;;-1.90;96966.00;;;;5083777;28;20453;-68
2023/04/05 01:24:38;;;;;;;16.03;8.03;;;;;-2.20;96977.00;;;;5079820;28;20438;-67
2023/04/05 01:27:43;;;;;;;8.97;6.00;;;;;-2.10;96976.00;;;;5078566;28;20472;-67
2023/04/05 01:30:36;;;;;;;13.93;8.03;;;;;-2.20;96983.00;;;;5081270;28;20496;-67
2023/04/05 01:33:29;;;;;;;5.90;5.30;;;;;-2.40;96959.00;;;;5082521;28;20436;-67
2023/04/05 01:36:20;;;;;;;9.57;6.93;;;;;-2.20;96977.00;;;;5077176;28;20519;-68
2023/04/05 01:39:11;;;;;;;11.00;5.87;;;;;-2.30;96961.00;;;;5081323;28;20430;-68
2023/04/05 01:42:01;;;;;;;12.40;7.33;;;;;-2.40;96965.00;;;;5074715;28;20458;-67
2023/04/05 01:44:51;;;;;;;10.13;6.53;;;;;-2.50;96962.00;;;;5078699;28;20484;-68
2023/04/05 01:47:41;;;;;;;13.43;7.30;;;;;-2.40;96964.00;;;;5084229;28;20566;-68
2023/04/05 01:50:30;;;;;;;10.03;7.57;;;;;-2.30;96960.00;;;;5083925;28;20457;-68
2023/04/05 01:53:19;;;;;;;6.90;5.67;;;;;-2.40;96956.00;;;;5083628;28;20960;-67
2023/04/05 01:56:08;;;;;;;9.23;7.47;;;;;-2.60;96955.00;;;;5085034;28;20418;-67
2023/04/05 01:58:57;;;;;;;10.63;6.83;;;;;-2.80;96960.00;;;;5084245;28;20457;-67
2023/04/05 02:01:46;;;;;;;8.33;5.63;;;;;-2.70;96969.00;;;;5085416;28;20453;-68
2023/04/05 02:04:36;;;;;;;10.00;4.97;;;;;-2.50;96965.00;;;;5084061;28;20461;-67
2023/04/05 02:07:26;;;;;;;6.00;4.60;;;;;-2.70;96959.00;;;;5086268;28;20506;-67
2023/04/05 02:10:15;;;;;;;7.63;5.90;;;;;-3.00;96966.00;;;;5084402;28;20495;-68
2023/04/05 02:13:04;;;;;;;7.27;5.30;;;;;-2.80;96966.00;;;;5083956;28;20948;-67
2023/04/05 02:15:53;;;;;;;8.03;4.93;;;;;-3.20;96956.00;;;;5083364;28;20550;-67
2023/04/05 02:18:42;;;;;;;5.97;4.17;;;;;-3.00;96963.00;;;;5084399;28;21172;-67
2023/04/05 02:21:34;;;;;;;6.60;4.73;;;;;-2.70;96956.00;;;;5081672;28;20448;-68
2023/04/05 02:24:23;;;;;;;9.40;4.20;;;;;-2.90;96965.00;;;;5080681;28;20469;-68
2023/04/05 02:27:12;;;;;;;7.23;4.83;;;;;-2.90;96967.00;;;;5081326;28;20463;-68
2023/04/05 02:30:01;;;;;;;7.07;5.37;;;;;-3.00;96960.00;;;;5077585;28;20429;-68
2023/04/05 02:32:50;;;;;;;3.20;3.00;;;;;-3.20;96956.00;;;;5083519;28;20433;-67
2023/04/05 02:35:39;;;;;;;6.80;4.23;;;;;-2.90;96958.00;;;;5082617;28;20430;-68
2023/04/05 02:38:30;;;;;;;4.10;3.20;;;;;-3.00;96959.00;;;;5085588;28;20422;-68
2023/04/05 02:41:21;;;;;;;3.73;3.20;;;;;-3.00;96959.00;;;;5082196;28;20459;-67
2023/04/05 02:44:10;;;;;;;4.40;3.57;;;;;-3.10;96944.00;;;;5080244;28;20434;-67
2023/04/05 02:46:59;;;;;;;7.17;4.50;;;;;-3.10;96953.00;;;;5080864;28;20449;-68
2023/04/05 02:49:48;;;;;;;4.50;4.07;;;;;-2.90;96956.00;;;;5080632;28;21175;-68
2023/04/05 02:52:37;;;;;;;6.80;3.87;;;;;-3.10;96951.00;;;;5076866;28;20422;-68
2023/04/05 02:55:29;;;;;;;6.70;4.37;;;;;-3.10;96948.00;;;;5087311;28;20437;-67
2023/04/05 02:58:18;;;;;;;3.57;3.27;;;;;-3.00;96947.00;;;;5083021;28;20426;-68
2023/04/05 03:01:07;;;;;;;8.20;3.33;;;;;-3.10;96945.00;;;;5071288;28;20478;-67
2023/04/05 03:03:56;;;;;;;3.73;2.60;;;;;-3.10;96951.00;;;;5087145;28;20429;-67
2023/04/05 03:06:47;;;;;;;5.07;4.10;;;;;-3.30;96936.00;;;;5081210;28;20430;-67
2023/04/05 03:09:37;;;;;;;9.47;4.50;;;;;-3.20;96945.00;;;;5079437;28;20426;-67
2023/04/05 03:12:27;;;;;;;5.80;3.57;;;;;-3.00;96945.00;;;;5079225;28;20841;-66
2023/04/05 03:15:16;;;;;;;5.23;3.07;;;;;-3.10;96935.00;;;;5081641;28;20465;-67
2023/04/05 03:18:05;;;;;;;3.63;3.00;;;;;-3.10;96941.00;;;;5080696;28;20508;-68
2023/04/05 03:20:55;;;;;;;6.00;3.13;;;;;-3.40;96942.00;;;;5083842;28;20502;-67
2023/04/05 03:23:45;;;;;;;4.67;2.90;;;;;-3.30;96940.00;;;;5083562;28;20429;-67
2023/04/05 03:26:34;;;;;;;5.20;3.63;;;;;-3.30;96934.00;;;;5081961;28;20437;-67
2023/04/05 03:29:25;;;;;;;5.20;2.80;;;;;-3.30;96934.00;;;;5081701;28;20989;-68
2023/04/05 03:32:14;;;;;;;4.73;3.23;;;;;-3.80;96934.00;;;;5084464;28;20430;-68
2023/04/05 03:35:03;;;;;;;3.20;2.67;;;;;-3.80;96939.00;;;;5082051;28;20434;-67
2023/04/05 03:37:52;;;;;;;5.13;3.80;;;;;-3.40;96929.00;;;;5083678;28;20421;-67
2023/04/05 03:40:41;;;;;;;9.03;3.70;;;;;-3.70;96946.00;;;;5078022;28;20523;-67
2023/04/05 03:43:31;;;;;;;4.07;2.87;;;;;-3.70;96934.00;;;;5081601;28;20508;-67
2023/04/05 03:46:22;;;;;;;5.90;3.90;;;;;-3.70;96945.00;;;;5083068;28;20426;-67
2023/04/05 03:49:11;;;;;;;4.50;2.70;;;;;-3.60;96946.00;;;;5083032;28;20541;-67
2023/04/05 03:52:00;;;;;;;3.60;3.00;;;;;-3.80;96951.00;;;;5083075;28;20457;-67
2023/04/05 03:54:49;;;;;;;3.33;2.73;;;;;-3.90;96945.00;;;;5084620;28;20835;-66
2023/04/05 03:57:38;;;;;;;4.70;3.77;;;;;-4.20;96955.00;;;;5078699;28;20490;-67
2023/04/05 04:00:28;;;;;;;4.90;3.30;;;;;-3.90;96943.00;;;;5082624;28;20996;-67
2023/04/05 04:03:19;;;;;;;4.40;2.50;;;;;-3.70;96955.00;;;;5083272;28;20448;-68
2023/04/05 04:06:10;;;;;;;4.17;3.40;;;;;-3.60;96961.00;;;;5079112;28;20812;-68
2023/04/05 04:08:59;;;;;;;7.20;2.90;;;;;-3.80;96954.00;;;;5085538;28;20567;-67
2023/04/05 04:11:48;;;;;;;4.90;3.23;;;;;-3.90;96962.00;;;;5080853;28;20453;-68
2023/04/05 04:14:37;;;;;;;2.03;1.93;;;;;-4.30;96966.00;;;;5085074;28;20432;-67
2023/04/05 04:17:30;;;;;;;4.90;2.97;;;;;-4.30;96957.00;;;;5082567;28;20936;-67
2023/04/05 04:20:20;;;;;;;3.70;2.70;;;;;-4.00;96957.00;;;;5084408;28;21273;-67
2023/04/05 04:23:09;;;;;;;4.27;2.77;;;;;-4.00;96943.00;;;;5084005;28;20429;-66
2023/04/05 04:26:00;;;;;;;4.73;2.87;;;;;-4.00;96953.00;;;;5084160;28;20460;-67
2023/04/05 04:28:49;;;;;;;3.30;3.00;;;;;-4.00;96951.00;;;;5084866;28;20468;-67
2023/04/05 04:31:38;;;;;;;5.37;3.57;;;;;-4.40;96947.00;;;;5070892;28;20534;-67
2023/04/05 04:34:29;;;;;;;5.60;3.27;;;;;-4.60;96961.00;;;;5086414;28;20415;-67
2023/04/05 04:37:21;;;;;;;1.67;1.57;;;;;-4.70;96954.00;;;;5089117;28;20417;-67
2023/04/05 04:40:11;;;;;;;2.90;2.23;;;;;-4.40;96958.00;;;;5072267;28;20575;-67
2023/04/05 04:43:00;;;;;;;7.20;3.17;;;;;-4.30;96966.00;;;;5087015;28;20421;-67
2023/04/05 04:45:53;;;;;;;3.47;3.17;;;;;-4.00;96976.00;;;;5088839;28;20990;-67
2023/04/05 04:48:42;;;;;;;6.90;4.67;;;;;-3.90;96971.00;;;;5089296;28;20464;-67
2023/04/05 04:51:31;;;;;;;3.87;3.37;;;;;-3.80;96975.00;;;;5088586;28;20469;-67
2023/04/05 04:54:22;;;;;;;5.17;2.87;;;;;-3.70;96975.00;;;;5088732;28;20433;-67
2023/04/05 04:57:11;;;;;;;3.10;2.80;;;;;-3.90;96982.00;;;;5083356;28;20441;-67
2023/04/05 05:00:00;;;;;;;3.97;2.90;;;;;-4.00;96979.00;;;;5076802;28;20434;-68
2023/04/05 05:02:49;;;;;;;3.43;3.20;;;;;-4.10;96991.00;;;;5089502;28;20493;-68
2023/04/05 05:05:43;;;;;;;6.07;3.73;;;;;-4.00;96987.00;;;;5088565;28;20429;-67
2023/04/05 05:08:32;;;;;;;7.73;3.47;;;;;-3.90;96989.00;;;;5080476;28;20473;-68
2023/04/05 05:11:22;;;;;;;4.57;3.63;;;;;-3.90;96978.00;;;;5088051;28;20457;-67
2023/04/05 05:14:11;;;;;;;3.57;3.00;;;;;-3.80;96985.00;;;;5088049;28;20556;-67
2023/04/05 05:17:00;;;;;;;4.17;3.53;;;;;-3.60;96988.00;;;;5085016;28;20426;-67
2023/04/05 05:19:49;;;;;;;3.17;2.87;;;;;-3.70;96978.00;;;;5084866;28;20444;-67
2023/04/05 05:22:39;;;;;;;7.00;2.83;;;;;-3.90;97001.00;;;;5082570;28;20430;-67
2023/04/05 05:25:28;;;;;;;6.97;3.43;;;;;-3.90;96989.00;;;;5084922;28;20427;-67
2023/04/05 05:28:19;;;;;;;3.33;3.07;;;;;-4.00;96984.00;;;;5082670;28;20437;-67
2023/04/05 05:31:07;;;;;;;3.27;2.97;;;;;-4.00;96986.00;;;;5085153;28;20456;-68
2023/04/05 05:33:57;;;;;;;3.07;2.77;;;;;-3.60;97000.00;;;;5078390;28;20441;-68
2023/04/05 05:36:46;;;;;;;3.20;2.67;;;;;-3.60;96991.00;;;;5080035;28;20441;-68
2023/04/05 05:39:36;;;;;;;3.50;3.03;;;;;-3.80;96993.00;;;;5084423;28;20438;-68
2023/04/05 05:42:25;;;;;;;3.87;3.57;;;;;-3.60;97003.00;;;;5097400;28;20970;-68
2023/04/05 05:45:15;;;;;;;6.57;2.90;;;;;-3.60;96997.00;;;;5083347;28;20986;-67
2023/04/05 05:48:04;;;;;;;9.23;3.90;;;;;-3.50;97009.00;;;;5087918;28;20912;-67
2023/04/05 05:50:53;;;;;;;5.07;2.83;;;;;-3.40;97008.00;;;;5087216;28;20479;-68
2023/04/05 05:53:42;;;;;;;5.83;3.03;;;;;-3.10;97009.00;;;;5083707;28;20431;-68
2023/04/05 05:56:31;;;;;;;5.20;3.60;;;;;-3.30;97010.00;;;;5078321;28;21245;-67
2023/04/05 05:59:20;;;;;;;4.47;3.37;;;;;-3.20;97010.00;;;;5084371;28;20434;-67
2023/04/05 06:02:10;;;;;;;10.20;4.27;;;;;-3.00;97011.00;;;;5082778;28;21914;-68
2023/04/05 06:05:00;;;;;;;5.63;4.57;;;;;-2.90;97017.00;;;;5078795;28;20490;-67
2023/04/05 06:07:49;;;;;;;6.67;3.23;;;;;-3.00;97027.00;;;;5081961;28;20960;-67
2023/04/05 06:10:38;;;;;;;3.63;3.30;;;;;-2.90;97022.00;;;;5075479;28;20470;-70
2023/04/05 06:13:27;;;;;;;4.40;3.37;;;;;-2.60;97020.00;;;;5086888;28;20437;-68
2023/04/05 06:16:16;;;;;;;9.93;4.13;;;;;-2.20;97022.00;;;;5087503;27;20440;-68
2023/04/05 06:19:07;;;;;;;7.07;3.67;;;;;-2.10;97009.00;;;;5088343;28;20425;-68
2023/04/05 06:21:56;;;;;;;4.73;3.67;;;;;-2.20;97016.00;;;;5084614;28;20857;-68
2023/04/05 06:24:45;;;;;;;4.40;3.77;;;;;-1.80;97016.00;;;;5084018;28;20441;-67
2023/04/05 06:27:34;;;;;;;40.90;20.93;;;;;-1.90;97022.00;;;;5086241;28;20932;-68
2023/04/05 06:30:23;;;;;;;54.67;31.93;;;;;-1.30;97030.00;;;;5080562;28;20477;-67
2023/04/05 06:33:12;;;;;;;27.37;14.03;;;;;-0.90;97024.00;;;;5083694;28;20441;-67
2023/04/05 06:36:03;;;;;;;4.07;3.67;;;;;-0.80;97019.00;;;;5079605;28;20425;-68
2023/04/05 06:38:52;;;;;;;4.43;4.03;;;;;-0.40;97026.00;;;;5071988;28;20972;-68
2023/04/05 06:41:41;;;;;;;4.30;3.93;;;;;-0.40;97026.00;;;;5078952;28;20976;-68
2023/04/05 06:44:30;;;;;;;9.57;4.70;;;;;0.20;97026.00;;;;5084705;28;20433;-68
2023/04/05 06:47:19;;;;;;;4.87;4.37;;;;;0.50;97033.00;;;;5086941;28;20462;-68
2023/04/05 06:50:09;;;;;;;8.30;5.70;;;;;0.80;97031.00;;;;5084407;28;20465;-68
2023/04/05 06:52:59;;;;;;;4.93;4.37;;;;;1.00;97040.00;;;;5081515;28;20570;-69
2023/04/05 06:55:50;;;;;;;7.60;5.87;;;;;0.90;97034.00;;;;5083225;28;20425;-68
2023/04/05 06:58:39;;;;;;;8.40;5.20;;;;;1.30;97036.00;;;;5087776;28;20422;-68
2023/04/05 07:01:28;;;;;;;4.90;4.37;;;;;1.50;97042.00;;;;5089041;28;20430;-67
2023/04/05 07:04:17;;;;;;;5.47;4.97;;;;;1.40;97040.00;;;;5087942;28;20448;-68
2023/04/05 07:07:06;;;;;;;4.70;3.70;;;;;1.60;97042.00;;;;5073006;28;20787;-68
2023/04/05 07:09:57;;;;;;;5.97;4.37;;;;;1.50;97042.00;;;;5080046;28;20484;-68
2023/04/05 07:12:46;;;;;;;6.93;5.07;;;;;2.10;97055.00;;;;5084620;28;20421;-67
2023/04/05 07:15:35;;;;;;;5.77;4.10;;;;;1.30;97031.00;;;;5075613;28;20430;-67
2023/04/05 07:18:24;;;;;;;5.30;4.83;;;;;1.90;97046.00;;;;5085092;28;20433;-68
2023/04/05 07:21:13;;;;;;;9.80;5.20;;;;;2.30;97042.00;;;;5082553;28;20449;-67
2023/04/05 07:24:02;;;;;;;7.27;4.27;;;;;2.50;97049.00;;;;5087034;28;20437;-68
2023/04/05 07:26:52;;;;;;;7.20;4.60;;;;;2.70;97051.00;;;;5079929;28;20421;-67
2023/04/05 07:29:42;;;;;;;6.33;4.60;;;;;2.90;97051.00;;;;5084641;28;20511;-68
2023/04/05 07:32:31;;;;;;;9.20;5.10;;;;;2.70;97049.00;;;;5071506;28;20470;-68
2023/04/05 07:35:20;;;;;;;6.67;4.87;;;;;2.90;97052.00;;;;5074607;28;20421;-68
2023/04/05 07:38:10;;;;;;;6.17;4.70;;;;;3.30;97056.00;;;;5081541;28;20469;-67
2023/04/05 07:40:59;;;;;;;7.40;5.23;;;;;3.60;97050.00;;;;5081292;28;20506;-67
2023/04/05 07:43:50;;;;;;;6.20;5.20;;;;;3.40;97044.00;;;;5079813;28;20430;-67
2023/04/05 07:46:43;;;;;;;7.70;5.87;;;;;3.60;97048.00;;;;5081370;28;20430;-69
2023/04/05 07:49:33;;;;;;;12.97;7.57;;;;;3.80;97057.00;;;;5086947;28;20425;-70
2023/04/05 07:52:22;;;;;;;14.50;8.10;;;;;3.80;97046.00;;;;5087462;28;20441;-70
2023/04/05 07:55:11;;;;;;;12.97;8.47;;;;;4.20;97046.00;;;;5084360;28;20932;-69
2023/04/05 07:58:00;;;;;;;20.47;10.00;;;;;4.40;97043.00;;;;5087275;28;20836;-69
2023/04/05 08:00:52;;;;;;;6.80;5.73;;;;;4.10;97036.00;;;;5077493;28;20866;-70
2023/04/05 08:03:41;;;;;;;5.07;4.63;;;;;4.80;97041.00;;;;5088740;28;21009;-69
2023/04/05 08:06:30;;;;;;;6.63;4.73;;;;;4.20;97042.00;;;;5089629;28;20452;-69
2023/04/05 08:09:19;;;;;;;10.93;5.40;;;;;4.60;97042.00;;;;5077501;28;20450;-69
2023/04/05 08:12:10;;;;;;;5.33;4.50;;;;;4.70;97037.00;;;;5074855;28;20453;-69
2023/04/05 08:14:59;;;;;;;9.30;4.93;;;;;4.90;97035.00;;;;5089060;28;20430;-70
2023/04/05 08:17:49;;;;;;;7.87;4.50;;;;;5.00;97028.00;;;;5083667;28;20476;-70
2023/04/05 08:20:39;;;;;;;4.07;3.73;;;;;5.00;97036.00;;;;5081201;28;20491;-70
2023/04/05 08:23:28;;;;;;;8.87;5.37;;;;;4.80;97020.00;;;;5088707;28;20429;-70
2023/04/05 08:26:17;;;;;;;6.63;5.67;;;;;5.50;97029.00;;;;5087606;28;20890;-69
2023/04/05 08:29:06;;;;;;;6.67;4.90;;;;;4.80;97025.00;;;;5088648;28;20202;-70
2023/04/05 08:31:57;;;;;;;5.13;4.67;;;;;5.80;97019.00;;;;5083324;28;20246;-71
2023/04/05 08:34:48;;;;;;;6.37;5.03;;;;;5.70;97032.00;;;;5089377;28;20203;-69
2023/04/05 08:37:36;;;;;;;8.43;5.50;;;;;6.20;97028.00;;;;5088153;28;20425;-68
2023/04/05 08:40:30;;;;;;;9.43;4.53;;;;;6.20;97017.00;;;;5085527;28;20894;-69
2023/04/05 08:43:23;;;;;;;6.83;4.80;;;;;6.40;97027.00;;;;5087978;28;20210;-70
2023/04/05 08:46:16;;;;;;;7.90;4.03;;;;;6.60;97011.00;;;;5085170;28;20195;-70
2023/04/05 08:49:07;;;;;;;6.63;5.00;;;;;6.40;97019.00;;;;5088222;27;20200;-69
2023/04/05 08:51:57;;;;;;;4.80;4.27;;;;;5.60;97007.00;;;;5084483;28;20723;-70
2023/04/05 08:54:46;;;;;;;5.93;3.87;;;;;6.70;97005.00;;;;5084897;28;20206;-70
2023/04/05 08:57:38;;;;;;;5.17;4.60;;;;;6.90;97005.00;;;;5082202;28;20676;-71
2023/04/05 09:00:28;;;;;;;7.73;4.27;;;;;6.60;96998.00;;;;5087864;28;20242;-69
2023/04/05 09:03:19;;;;;;;7.83;5.30;;;;;6.80;96996.00;;;;5079507;28;20207;-70
2023/04/05 09:06:10;;;;;;;5.67;3.90;;;;;7.20;96990.00;;;;5089713;28;20705;-72
2023/04/05 09:09:01;;;;;;;9.03;5.33;;;;;7.40;96993.00;;;;5086236;28;20195;-71
2023/04/05 09:11:50;;;;;;;4.87;4.43;;;;;8.00;96996.00;;;;5084261;28;20218;-72
2023/04/05 09:14:40;;;;;;;5.60;4.10;;;;;6.60;96985.00;;;;5088735;28;20211;-72
2023/04/05 09:17:31;;;;;;;3.87;3.37;;;;;7.40;96977.00;;;;5084390;28;20261;-72
2023/04/05 09:20:20;;;;;;;5.60;3.87;;;;;8.20;96984.00;;;;5090285;28;20227;-72
2023/04/05 09:23:09;;;;;;;7.37;4.93;;;;;8.60;96983.00;;;;5086453;28;20647;-71
2023/04/05 09:25:59;;;;;;;5.70;3.73;;;;;7.40;96970.00;;;;5085743;28;20762;-71
2023/04/05 09:28:48;;;;;;;5.37;3.83;;;;;6.50;96960.00;;;;5081432;28;20191;-71
2023/04/05 09:31:37;;;;;;;4.60;3.47;;;;;7.70;96958.00;;;;5085609;28;20251;-73
2023/04/05 09:34:26;;;;;;;9.60;4.63;;;;;7.30;96953.00;;;;5085775;28;20202;-71
2023/04/05 09:37:16;;;;;;;6.07;3.60;;;;;7.90;96958.00;;;;5087819;28;20211;-73
2023/04/05 09:40:08;;;;;;;4.07;3.30;;;;;6.90;96938.00;;;;5083690;28;20663;-71
2023/04/05 09:42:59;;;;;;;4.00;3.23;;;;;6.20;96919.00;;;;5088305;28;20564;-72
2023/04/05 09:45:48;;;;;;;4.63;3.00;;;;;7.90;96943.00;;;;5089041;28;20211;-72
2023/04/05 09:48:47;;;;;;;4.50;2.63;;;;;9.10;96937.00;;;;5083701;28;20204;-72
2023/04/05 09:51:37;;;;;;;4.33;3.23;;;;;9.80;96942.00;;;;5087034;28;20578;-73
2023/04/05 09:54:27;;;;;;;8.40;3.03;;;;;10.30;96950.00;;;;5069334;28;20215;-72
2023/04/05 09:57:17;;;;;;;5.63;2.90;;;;;10.20;96941.00;;;;5074112;28;20253;-70
2023/04/05 10:00:19;;;;;;;3.03;2.30;;;;;10.30;96933.00;;;;5091163;28;20206;-69
2023/04/05 10:03:08;;;;;;;2.77;1.80;;;;;10.30;96923.00;;;;5089031;28;20199;-69
2023/04/05 10:05:58;;;;;;;2.77;1.90;;;;;10.60;96931.00;;;;5085402;28;20723;-69
2023/04/05 10:08:48;;;;;;;3.83;2.27;;;;;10.70;96923.00;;;;5082387;28;20280;-73
2023/04/05 10:11:37;;;;;;;2.10;1.50;;;;;11.10;96925.00;;;;5087735;28;20312;-72
2023/04/05 10:14:26;;;;;;;3.27;2.03;;;;;11.20;96926.00;;;;5088019;28;20697;-68
2023/04/05 10:17:20;;;;;;;4.07;1.63;;;;;10.20;96902.00;;;;5086293;28;20670;-72
2023/04/05 10:20:14;;;;;;;3.03;2.30;;;;;10.60;96897.00;;;;5086718;28;20223;-72
2023/04/05 10:23:09;;;;;;;4.60;1.67;;;;;11.60;96903.00;;;;5085533;28;20203;-71
2023/04/05 10:26:05;;;;;;;3.47;2.30;;;;;11.60;96904.00;;;;5086509;28;20199;-73
2023/04/05 10:28:58;;;;;;;3.70;1.97;;;;;12.20;96899.00;;;;5082337;28;20215;-70
2023/04/05 10:31:51;;;;;;;1.73;1.57;;;;;12.70;96897.00;;;;5087537;28;20965;-71
2023/04/05 10:34:45;;;;;;;3.17;2.03;;;;;12.70;96899.00;;;;5087733;28;20238;-70
2023/04/05 10:37:42;;;;;;;3.20;2.20;;;;;13.00;96885.00;;;;5089070;28;20199;-70
2023/04/05 10:40:33;;;;;;;4.33;1.90;;;;;13.40;96883.00;;;;5081001;28;20236;-74
2023/04/05 10:43:25;;;;;;;4.20;2.87;;;;;12.40;96877.00;;;;5089765;28;20199;-69
2023/04/05 10:46:20;;;;;;;4.90;2.43;;;;;13.20;96871.00;;;;5086897;28;20231;-70
2023/04/05 10:49:12;;;;;;;2.93;2.43;;;;;13.30;96872.00;;;;5085305;28;20218;-75
2023/04/05 10:52:02;;;;;;;5.37;2.50;;;;;12.20;96865.00;;;;5081209;28;20251;-64
2023/04/05 10:54:55;;;;;;;2.03;1.80;;;;;13.40;96867.00;;;;5088319;28;20673;-67
2023/04/05 10:57:45;;;;;;;3.80;1.80;;;;;13.20;96865.00;;;;5086097;28;20690;-65
2023/04/05 11:00:34;;;;;;;2.57;1.57;;;;;13.60;96862.00;;;;5081158;28;20219;-67
2023/04/05 11:03:47;;;;;;;3.33;1.63;;;;;13.80;96855.00;;;;5080629;28;20200;-67
2023/04/05 11:06:36;;;;;;;1.73;1.40;;;;;13.00;96856.00;;;;5087452;28;20765;-67
2023/04/05 11:09:27;;;;;;;1.33;1.23;;;;;14.40;96857.00;;;;5082456;28;20297;-68
2023/04/05 11:12:16;;;;;;;2.30;1.53;;;;;15.20;96856.00;;;;5087327;28;20215;-68
2023/04/05 11:15:30;;;;;;;1.73;1.40;;;;;15.10;96850.00;;;;5085296;28;20215;-68
2023/04/05 11:18:22;;;;;;;2.43;1.30;;;;;14.80;96843.00;;;;5078075;28;20206;-68
2023/04/05 11:21:11;;;;;;;1.33;1.23;;;;;14.70;96833.00;;;;5084525;28;20235;-67
2023/04/05 11:24:03;;;;;;;2.13;1.30;;;;;13.00;96841.00;;;;5088277;28;20286;-66
2023/04/05 11:26:57;;;;;;;2.27;1.60;;;;;12.70;96823.00;;;;5076039;28;20807;-67
2023/04/05 11:29:49;;;;;;;1.30;1.13;;;;;14.70;96832.00;;;;5087180;28;20255;-69
2023/04/05 11:32:40;;;;;;;2.03;1.50;;;;;14.20;96821.00;;;;5085797;28;20296;-73
2023/04/05 11:35:35;;;;;;;1.27;1.10;;;;;13.80;96826.00;;;;5089191;28;20210;-73
2023/04/05 11:38:24;;;;;;;2.37;1.70;;;;;15.50;96831.00;;;;5086806;28;20199;-73
2023/04/05 11:41:16;;;;;;;2.37;1.10;;;;;14.70;96823.00;;;;5076199;28;20227;-66
2023/04/05 11:44:14;;;;;;;3.37;2.47;;;;;16.60;96827.00;;;;5073075;28;20200;-66
2023/04/05 11:47:05;;;;;;;3.20;1.67;;;;;14.70;96819.00;;;;5075977;28;20207;-68
2023/04/05 11:49:54;;;;;;;3.70;1.90;;;;;16.00;96800.00;;;;5087664;28;20206;-72
2023/04/05 11:52:42;;;;;;;3.97;1.50;;;;;16.50;96812.00;;;;5081438;28;20735;-70
2023/04/05 11:55:32;;;;;;;2.13;1.30;;;;;17.70;96818.00;;;;5086497;28;20735;-71
2023/04/05 11:58:23;;;;;;;3.43;2.07;;;;;16.90;96819.00;;;;5085645;28;20348;-65
2023/04/05 12:01:13;;;;;;;2.73;1.60;;;;;16.50;96807.00;;;;5087360;28;20242;-72
2023/04/05 12:04:02;;;;;;;4.50;1.67;;;;;16.80;96807.00;;;;5078520;28;20693;-74
2023/04/05 12:07:13;;;;;;;5.10;2.23;;;;;17.40;96803.00;;;;5073890;28;20200;-69
2023/04/05 12:10:05;;;;;;;2.30;1.40;;;;;18.30;96806.00;;;;5083877;28;20211;-69
2023/04/05 12:12:54;;;;;;;2.93;1.40;;;;;16.90;96799.00;;;;5081951;28;20694;-71
2023/04/05 12:15:43;;;;;;;2.40;1.57;;;;;18.50;96812.00;;;;5086780;28;20249;-71
2023/04/05 12:18:35;;;;;;;1.67;1.40;;;;;18.10;96803.00;;;;5080733;28;20680;-70
2023/04/05 12:21:25;;;;;;;2.43;1.67;;;;;17.80;96789.00;;;;5073872;28;20219;-72
2023/04/05 12:24:14;;;;;;;3.50;2.17;;;;;18.10;96787.00;;;;5070833;28;20200;-69
2023/04/05 12:27:03;;;;;;;10.07;6.53;;;;;19.20;96797.00;;;;5084393;28;20208;-72
2023/04/05 12:30:06;;;;;;;11.77;6.97;;;;;18.00;96787.00;;;;5082285;28;20623;-69
2023/04/05 12:32:56;;;;;;;2.97;1.97;;;;;19.20;96787.00;;;;5082777;28;20793;-69
2023/04/05 12:35:47;;;;;;;3.93;1.80;;;;;17.00;96772.00;;;;5086744;28;20206;-74
2023/04/05 12:38:37;;;;;;;2.63;1.67;;;;;17.90;96776.00;;;;5087197;28;20208;-69
2023/04/05 12:41:29;;;;;;;2.33;1.73;;;;;19.70;96794.00;;;;5086684;28;20263;-69
2023/04/05 12:44:29;;;;;;;3.90;2.40;;;;;18.30;96770.00;;;;5087391;28;20670;-73
2023/04/05 12:47:18;;;;;;;2.70;1.63;;;;;17.10;96764.00;;;;5085214;28;20211;-71
2023/04/05 12:50:14;;;;;;;2.03;1.83;;;;;19.00;96772.00;;;;5083362;28;20656;-72
2023/04/05 12:53:07;;;;;;;1.77;1.67;;;;;19.60;96770.00;;;;5089744;28;20605;-71
2023/04/05 12:55:57;;;;;;;2.07;1.23;;;;;19.50;96770.00;;;;5090564;28;20195;-71
2023/04/05 12:58:50;;;;;;;4.37;1.50;;;;;20.50;96762.00;;;;5089933;28;20679;-71
2023/04/05 13:01:39;;;;;;;2.47;2.00;;;;;20.00;96760.00;;;;5090895;28;20242;-72
2023/04/05 13:04:28;;;;;;;1.90;1.20;;;;;19.30;96754.00;;;;5090182;28;20245;-72
2023/04/05 13:07:17;;;;;;;2.07;1.37;;;;;17.10;96743.00;;;;5092016;28;20207;-73
2023/04/05 13:10:09;;;;;;;4.43;1.20;;;;;14.60;96723.00;;;;5090641;28;20203;-77
2023/04/05 13:12:58;;;;;;;2.27;1.50;;;;;14.90;96713.00;;;;5089792;28;20565;-75
2023/04/05 13:15:47;;;;;;;2.70;1.60;;;;;17.50;96731.00;;;;5089944;28;20242;-73
2023/04/05 13:18:37;;;;;;;2.83;1.27;;;;;19.30;96730.00;;;;5090454;28;20203;-74
2023/04/05 13:21:26;;;;;;;2.23;1.57;;;;;20.40;96730.00;;;;5090415;28;20272;-73
2023/04/05 13:24:15;;;;;;;2.27;1.70;;;;;21.20;96736.00;;;;5079323;28;20224;-72
2023/04/05 13:27:05;;;;;;;2.43;1.40;;;;;22.70;96740.00;;;;5086313;28;20703;-72
2023/04/05 13:29:54;;;;;;;1.43;1.10;;;;;22.90;96747.00;;;;5089693;28;20117;-72
2023/04/05 13:32:43;;;;;;;1.50;1.40;;;;;22.80;96742.00;;;;5090698;28;20216;-71
2023/04/05 13:35:32;;;;;;;1.47;1.20;;;;;22.60;96746.00;;;;5089124;28;20211;-68
2023/04/05 13:38:21;;;;;;;3.57;1.77;;;;;21.60;96732.00;;;;5089658;28;20202;-73
2023/04/05 13:41:10;;;;;;;3.73;2.03;;;;;19.30;96734.00;;;;5083871;28;20228;-72
2023/04/05 13:44:00;;;;;;;3.27;2.13;;;;;16.90;96716.00;;;;5084174;28;20270;-72
2023/04/05 13:46:50;;;;;;;3.50;2.47;;;;;15.20;96705.00;;;;5088014;28;20191;-69
2023/04/05 13:49:39;;;;;;;3.03;2.50;;;;;14.90;96700.00;;;;5090146;28;20203;-72
2023/04/05 13:52:28;;;;;;;4.07;2.47;;;;;13.40;96700.00;;;;5083910;28;20741;-72
2023/04/05 13:55:17;;;;;;;5.40;2.80;;;;;13.10;96699.00;;;;5087331;28;20768;-72
2023/04/05 13:58:06;;;;;;;2.73;2.17;;;;;13.20;96696.00;;;;5085945;28;20203;-64
2023/04/05 14:00:56;;;;;;;3.70;2.20;;;;;13.30;96700.00;;;;5089828;28;20227;-65
2023/04/05 14:03:45;;;;;;;2.40;2.10;;;;;15.20;96701.00;;;;5085908;28;20607;-72
2023/04/05 14:06:34;;;;;;;4.23;2.53;;;;;15.90;96713.00;;;;5077435;28;20200;-70
2023/04/05 14:09:23;;;;;;;1.93;1.77;;;;;18.00;96726.00;;;;5078171;28;20724;-67
2023/04/05 14:12:12;;;;;;;2.60;2.30;;;;;19.60;96730.00;;;;5083805;28;20323;-67
2023/04/05 14:15:02;;;;;;;3.83;2.30;;;;;17.30;96731.00;;;;5089557;28;20214;-70